Time;durP1;ratioP1;P1;durP2;ratioP2;P2;SDS_P1;SDS_P2;PMS_P1;PMS_P2;Temp;Humidity;BMP_temperature;BMP_pressure;BME280_temperature;BME280_humidity;BME280_pressure;Samples;Min_cycle;Max_cycle;Signal;HPM_P1;HPM_P2
2022/12/28 00:01:30;;;;;;;;;;;;;;;;;;4969149;28;19925;-49
2022/12/28 00:03:56;;;;;;;;;;;;;;;;;;4985430;28;19925;-49
2022/12/28 00:06:22;;;;;;;;;;;;;;;;;;4963321;28;19965;-50
2022/12/28 00:08:48;;;;;;;;;;;;;;;;;;4973471;28;19926;-49
2022/12/28 00:11:13;;;;;;;;;;;;;;;;;;4978052;28;19918;-50
2022/12/28 00:13:39;;;;;;;;;;;;;;;;;;4981443;28;19927;-49
2022/12/28 00:16:05;;;;;;;;;;;;;;;;;;4983106;28;20369;-49
2022/12/28 00:18:31;;;;;;;;;;;;;;;;;;4969549;28;19930;-49
2022/12/28 00:20:57;;;;;;;;;;;;;;;;;;4969207;28;19929;-49
2022/12/28 00:23:23;;;;;;;;;;;;;;;;;;4972318;28;20224;-49
2022/12/28 00:25:49;;;;;;;;;;;;;;;;;;5000257;28;19924;-50
2022/12/28 00:28:15;;;;;;;;;;;;;;;;;;4995210;28;19924;-49
2022/12/28 00:30:40;;;;;;;;;;;;;;;;;;4975385;28;19917;-50
2022/12/28 00:33:06;;;;;;;;;;;;;;;;;;4988606;28;19945;-50
2022/12/28 00:35:32;;;;;;;;;;;;;;;;;;4983124;28;19933;-50
2022/12/28 00:37:58;;;;;;;;;;;;;;;;;;4976152;28;19965;-50
2022/12/28 00:40:24;;;;;;;;;;;;;;;;;;4991348;28;20383;-50
2022/12/28 00:42:50;;;;;;;;;;;;;;;;;;4984553;28;19956;-49
2022/12/28 00:45:16;;;;;;;;;;;;;;;;;;4990584;28;19932;-49
2022/12/28 00:47:42;;;;;;;;;;;;;;;;;;4973454;28;19921;-49
2022/12/28 00:50:08;;;;;;;;;;;;;;;;;;4983768;28;20268;-49
2022/12/28 00:52:34;;;;;;;;;;;;;;;;;;4992091;28;20869;-50
2022/12/28 00:54:59;;;;;;;;;;;;;;;;;;4950669;28;20402;-49
2022/12/28 00:57:25;;;;;;;;;;;;;;;;;;4988925;28;20012;-50
2022/12/28 00:59:51;;;;;;;;;;;;;;;;;;4987991;28;20077;-49
2022/12/28 01:02:17;;;;;;;;;;;;;;;;;;4985385;28;19922;-50
2022/12/28 01:04:43;;;;;;;;;;;;;;;;;;4989907;28;19999;-49
2022/12/28 01:07:09;;;;;;;;;;;;;;;;;;4977748;28;19921;-49
2022/12/28 01:09:35;;;;;;;;;;;;;;;;;;4979516;28;20054;-50
2022/12/28 01:12:00;;;;;;;;;;;;;;;;;;4975187;28;19918;-50
2022/12/28 01:14:26;;;;;;;;;;;;;;;;;;4968756;28;19914;-50
2022/12/28 01:16:52;;;;;;;;;;;;;;;;;;4988594;28;19928;-49
2022/12/28 01:19:18;;;;;;;;;;;;;;;;;;4961032;28;19973;-49
2022/12/28 01:21:44;;;;;;;;;;;;;;;;;;4990689;28;19987;-49
2022/12/28 01:24:10;;;;;;;;;;;;;;;;;;4993797;28;20355;-50
2022/12/28 01:26:36;;;;;;;;;;;;;;;;;;4949988;28;19925;-50
2022/12/28 01:29:01;;;;;;;;;;;;;;;;;;4949979;28;19937;-50
2022/12/28 01:31:27;;;;;;;;;;;;;;;;;;4952075;28;19925;-50
2022/12/28 01:33:54;;;;;;;;;;;;;;;;;;4965257;28;20028;-49
2022/12/28 01:36:19;;;;;;;;;;;;;;;;;;4960121;28;20682;-50
2022/12/28 01:38:45;;;;;;;;;;;;;;;;;;4971387;28;19928;-50
2022/12/28 01:41:11;;;;;;;;;;;;;;;;;;4951002;28;19922;-50
2022/12/28 01:43:37;;;;;;;;;;;;;;;;;;4974965;28;20932;-49
2022/12/28 01:46:03;;;;;;;;;;;;;;;;;;4961280;28;19924;-50
2022/12/28 01:48:29;;;;;;;;;;;;;;;;;;4979869;28;19925;-49
2022/12/28 01:50:55;;;;;;;;;;;;;;;;;;4963882;28;19953;-49
2022/12/28 01:53:20;;;;;;;;;;;;;;;;;;4982660;28;20323;-49
2022/12/28 01:55:46;;;;;;;;;;;;;;;;;;4985017;28;20028;-50
2022/12/28 01:58:12;;;;;;;;;;;;;;;;;;4976821;28;20382;-49
2022/12/28 02:00:38;;;;;;;;;;;;;;;;;;4993755;28;20015;-49
2022/12/28 02:03:04;;;;;;;;;;;;;;;;;;4982791;28;19932;-48
2022/12/28 02:05:30;;;;;;;;;;;;;;;;;;4975282;28;19956;-50
2022/12/28 02:07:56;;;;;;;;;;;;;;;;;;4978114;28;20549;-49
2022/12/28 02:10:22;;;;;;;;;;;;;;;;;;4939974;28;19926;-50
2022/12/28 02:12:48;;;;;;;;;;;;;;;;;;4973222;28;19968;-49
2022/12/28 02:15:13;;;;;;;;;;;;;;;;;;4978283;28;20461;-49
2022/12/28 02:17:39;;;;;;;;;;;;;;;;;;4949852;28;20384;-49
2022/12/28 02:20:05;;;;;;;;;;;;;;;;;;4952417;28;19926;-50
2022/12/28 02:22:31;;;;;;;;;;;;;;;;;;4958025;28;20900;-49
2022/12/28 02:24:57;;;;;;;;;;;;;;;;;;4955386;28;19917;-50
2022/12/28 02:27:23;;;;;;;;;;;;;;;;;;4955530;28;20021;-49
2022/12/28 02:29:49;;;;;;;;;;;;;;;;;;4946167;28;20546;-49
2022/12/28 02:32:14;;;;;;;;;;;;;;;;;;4908592;28;20060;-49
2022/12/28 02:34:40;;;;;;;;;;;;;;;;;;4957841;28;19921;-50
2022/12/28 02:37:06;;;;;;;;;;;;;;;;;;4935180;28;20485;-49
2022/12/28 02:39:32;;;;;;;;;;;;;;;;;;4954020;28;19937;-49
2022/12/28 02:41:58;;;;;;;;;;;;;;;;;;4969074;28;19928;-49
2022/12/28 02:50:11;;;;;;;;;;;;;;;;;;4958818;28;20360;-49
2022/12/28 02:52:37;;;;;;;;;;;;;;;;;;4968451;28;19922;-50
2022/12/28 02:57:48;;;;;;;;;;;;;;;;;;4960290;28;20050;-50
2022/12/28 03:00:13;;;;;;;;;;;;;;;;;;4957835;28;20434;-50
2022/12/28 03:02:39;;;;;;;;;;;;;;;;;;4955032;28;19922;-50
2022/12/28 03:05:05;;;;;;;;;;;;;;;;;;4952854;28;19936;-49
2022/12/28 03:10:16;;;;;;;;;;;;;;;;;;4968276;28;19929;-49
2022/12/28 03:12:42;;;;;;;;;;;;;;;;;;4976939;28;19926;-50
2022/12/28 03:15:08;;;;;;;;;;;;;;;;;;4949201;28;20275;-49
2022/12/28 03:31:17;;;;;;;;;;;;;;;;;;4935707;28;20442;-49
2022/12/28 03:33:43;;;;;;;;;;;;;;;;;;4954071;28;19954;-49
2022/12/28 03:36:09;;;;;;;;;;;;;;;;;;4957291;28;19992;-49
2022/12/28 03:38:34;;;;;;;;;;;;;;;;;;4955147;28;19982;-50
2022/12/28 03:41:00;;;;;;;;;;;;;;;;;;4959550;28;19925;-49
2022/12/28 03:43:41;;;;;;;;;;;;;;;;;;4952623;28;20019;-49
2022/12/28 03:46:07;;;;;;;;;;;;;;;;;;4930753;28;20907;-49
2022/12/28 03:48:33;;;;;;;;;;;;;;;;;;4981442;28;19945;-48
2022/12/28 03:50:59;;;;;;;;;;;;;;;;;;4966659;28;19929;-49
2022/12/28 03:53:25;;;;;;;;;;;;;;;;;;4965181;28;20051;-50
2022/12/28 03:55:51;;;;;;;;;;;;;;;;;;4964483;28;19931;-50
2022/12/28 03:58:17;;;;;;;;;;;;;;;;;;4952769;28;19926;-49
2022/12/28 04:00:42;;;;;;;;;;;;;;;;;;4955622;28;20150;-49
2022/12/28 04:03:08;;;;;;;;;;;;;;;;;;4948948;28;19925;-50
2022/12/28 04:05:34;;;;;;;;;;;;;;;;;;4942539;28;19933;-49
2022/12/28 04:08:00;;;;;;;;;;;;;;;;;;4949763;28;20554;-50
2022/12/28 04:10:26;;;;;;;;;;;;;;;;;;4967243;28;19926;-50
2022/12/28 04:12:52;;;;;;;;;;;;;;;;;;4951731;28;20545;-50
2022/12/28 04:15:18;;;;;;;;;;;;;;;;;;4959047;28;20401;-50
2022/12/28 04:17:43;;;;;;;;;;;;;;;;;;4940691;28;19925;-49
2022/12/28 04:20:09;;;;;;;;;;;;;;;;;;4960764;28;20070;-50
2022/12/28 04:22:35;;;;;;;;;;;;;;;;;;4962637;28;19968;-49
2022/12/28 04:25:01;;;;;;;;;;;;;;;;;;4970333;28;20362;-50
2022/12/28 04:27:27;;;;;;;;;;;;;;;;;;4954159;28;19965;-50
2022/12/28 04:29:53;;;;;;;;;;;;;;;;;;4946737;28;19926;-49
2022/12/28 04:32:19;;;;;;;;;;;;;;;;;;4963038;28;19975;-49
2022/12/28 04:34:44;;;;;;;;;;;;;;;;;;4939563;28;20306;-50
2022/12/28 04:37:10;;;;;;;;;;;;;;;;;;4963167;28;20144;-50
2022/12/28 04:39:36;;;;;;;;;;;;;;;;;;4978438;28;19925;-49
2022/12/28 04:42:02;;;;;;;;;;;;;;;;;;4956757;28;19926;-49
2022/12/28 04:44:28;;;;;;;;;;;;;;;;;;4957047;28;19932;-49
2022/12/28 04:46:54;;;;;;;;;;;;;;;;;;4973668;28;19917;-49
2022/12/28 04:49:20;;;;;;;;;;;;;;;;;;4945178;28;19981;-49
2022/12/28 04:51:46;;;;;;;;;;;;;;;;;;4978379;28;20284;-49
2022/12/28 04:54:12;;;;;;;;;;;;;;;;;;4948713;28;19929;-49
2022/12/28 04:56:38;;;;;;;;;;;;;;;;;;4941872;28;19931;-49
2022/12/28 04:59:04;;;;;;;;;;;;;;;;;;4959863;28;19985;-49
2022/12/28 05:01:30;;;;;;;;;;;;;;;;;;4960142;28;19926;-49
2022/12/28 05:03:55;;;;;;;;;;;;;;;;;;4963653;28;20775;-49
2022/12/28 05:06:21;;;;;;;;;;;;;;;;;;4957723;28;19925;-48
2022/12/28 05:08:47;;;;;;;;;;;;;;;;;;4949682;28;20938;-49
2022/12/28 05:11:13;;;;;;;;;;;;;;;;;;4956954;28;19995;-49
2022/12/28 05:13:39;;;;;;;;;;;;;;;;;;4955422;28;19925;-49
2022/12/28 05:16:05;;;;;;;;;;;;;;;;;;4927573;28;19922;-49
2022/12/28 05:18:31;;;;;;;;;;;;;;;;;;4963609;28;19926;-49
2022/12/28 05:20:57;;;;;;;;;;;;;;;;;;4982734;28;19940;-49
2022/12/28 05:23:22;;;;;;;;;;;;;;;;;;4979051;28;20289;-49
2022/12/28 05:25:48;;;;;;;;;;;;;;;;;;4958509;28;20589;-49
2022/12/28 05:28:14;;;;;;;;;;;;;;;;;;4978554;28;19925;-48
2022/12/28 05:30:40;;;;;;;;;;;;;;;;;;4958764;28;19926;-49
2022/12/28 05:33:06;;;;;;;;;;;;;;;;;;4949290;28;19925;-49
2022/12/28 05:35:32;;;;;;;;;;;;;;;;;;4952333;28;20392;-49
2022/12/28 05:37:57;;;;;;;;;;;;;;;;;;4951691;28;19933;-48
2022/12/28 05:40:23;;;;;;;;;;;;;;;;;;4937988;28;19918;-49
2022/12/28 05:42:49;;;;;;;;;;;;;;;;;;4950582;28;21139;-49
2022/12/28 05:45:15;;;;;;;;;;;;;;;;;;4965884;28;19925;-49
2022/12/28 05:47:41;;;;;;;;;;;;;;;;;;4956558;28;19932;-49
2022/12/28 05:50:07;;;;;;;;;;;;;;;;;;4944729;28;19922;-49
2022/12/28 05:52:33;;;;;;;;;;;;;;;;;;4943877;28;20409;-49
2022/12/28 05:54:59;;;;;;;;;;;;;;;;;;4965792;28;19981;-49
2022/12/28 05:57:25;;;;;;;;;;;;;;;;;;4972283;28;20912;-48
2022/12/28 05:59:51;;;;;;;;;;;;;;;;;;4960343;28;19957;-49
2022/12/28 06:02:17;;;;;;;;;;;;;;;;;;4945863;28;20120;-49
2022/12/28 06:04:43;;;;;;;;;;;;;;;;;;4949617;28;20028;-49
2022/12/28 06:07:08;;;;;;;;;;;;;;;;;;4943690;28;19926;-49
2022/12/28 06:09:34;;;;;;;;;;;;;;;;;;4929058;28;19918;-49
2022/12/28 06:12:00;;;;;;;;;;;;;;;;;;4931224;28;20470;-49
2022/12/28 06:14:26;;;;;;;;;;;;;;;;;;4952716;28;19960;-49
2022/12/28 06:16:52;;;;;;;;;;;;;;;;;;4962557;28;19922;-49
2022/12/28 06:19:18;;;;;;;;;;;;;;;;;;4931527;28;19934;-49
2022/12/28 06:21:44;;;;;;;;;;;;;;;;;;4944433;28;20067;-49
2022/12/28 06:24:10;;;;;;;;;;;;;;;;;;4960679;28;20340;-49
2022/12/28 06:26:35;;;;;;;;;;;;;;;;;;4934149;28;19923;-48
2022/12/28 06:29:02;;;;;;;;;;;;;;;;;;4938287;28;22017;-49
2022/12/28 06:31:27;;;;;;;;;;;;;;;;;;4943735;28;19927;-49
2022/12/28 06:33:54;;;;;;;;;;;;;;;;;;4940569;28;19970;-49
2022/12/28 06:36:20;;;;;;;;;;;;;;;;;;4935637;28;19918;-49
2022/12/28 06:38:46;;;;;;;;;;;;;;;;;;4947039;28;19949;-49
2022/12/28 06:41:12;;;;;;;;;;;;;;;;;;4931077;28;19922;-49
2022/12/28 06:43:38;;;;;;;;;;;;;;;;;;4945455;28;19921;-49
2022/12/28 06:46:04;;;;;;;;;;;;;;;;;;4926386;28;19926;-49
2022/12/28 06:48:30;;;;;;;;;;;;;;;;;;4915930;28;20096;-49
2022/12/28 06:50:55;;;;;;;;;;;;;;;;;;4912796;28;20020;-50
2022/12/28 06:53:21;;;;;;;;;;;;;;;;;;4925453;28;20162;-49
2022/12/28 06:55:47;;;;;;;;;;;;;;;;;;4933230;28;19929;-49
2022/12/28 06:58:13;;;;;;;;;;;;;;;;;;4932968;28;19930;-49
2022/12/28 07:00:39;;;;;;;;;;;;;;;;;;4939007;28;19925;-49
2022/12/28 07:03:05;;;;;;;;;;;;;;;;;;4924827;28;20985;-49
2022/12/28 07:05:31;;;;;;;;;;;;;;;;;;4922696;28;19956;-49
2022/12/28 07:07:57;;;;;;;;;;;;;;;;;;4939897;28;19928;-49
2022/12/28 07:10:22;;;;;;;;;;;;;;;;;;4917402;28;19928;-49
2022/12/28 07:12:48;;;;;;;;;;;;;;;;;;4948834;28;20355;-49
2022/12/28 07:15:14;;;;;;;;;;;;;;;;;;4939627;28;19970;-49
2022/12/28 07:17:40;;;;;;;;;;;;;;;;;;4945231;28;19934;-48
2022/12/28 07:20:06;;;;;;;;;;;;;;;;;;4937328;28;21223;-49
2022/12/28 07:22:32;;;;;;;;;;;;;;;;;;4939298;28;20362;-49
2022/12/28 07:24:57;;;;;;;;;;;;;;;;;;4929725;28;19926;-50
2022/12/28 07:27:23;;;;;;;;;;;;;;;;;;4926141;28;20132;-49
2022/12/28 07:29:49;;;;;;;;;;;;;;;;;;4943407;28;19923;-49
2022/12/28 07:32:15;;;;;;;;;;;;;;;;;;4925166;28;20195;-49
2022/12/28 07:34:41;;;;;;;;;;;;;;;;;;4933462;28;21004;-48
2022/12/28 07:37:07;;;;;;;;;;;;;;;;;;4949201;28;20021;-49
2022/12/28 07:39:34;;;;;;;;;;;;;;;;;;4928629;28;20339;-49
2022/12/28 07:42:05;;;;;;;;;;;;;;;;;;4954246;28;19961;-49
2022/12/28 07:44:31;;;;;;;;;;;;;;;;;;4970807;28;19984;-49
2022/12/28 07:46:57;;;;;;;;;;;;;;;;;;4966454;28;20384;-49
2022/12/28 07:49:22;;;;;;;;;;;;;;;;;;4942928;28;19911;-49
2022/12/28 07:51:48;;;;;;;;;;;;;;;;;;4940052;28;20002;-50
2022/12/28 07:54:14;;;;;;;;;;;;;;;;;;4928516;28;19923;-49
2022/12/28 07:56:40;;;;;;;;;;;;;;;;;;4930718;28;20591;-49
2022/12/28 07:59:06;;;;;;;;;;;;;;;;;;4944624;28;19969;-48
2022/12/28 08:01:32;;;;;;;;;;;;;;;;;;4960539;28;19925;-49
2022/12/28 08:03:58;;;;;;;;;;;;;;;;;;4958337;28;19926;-49
2022/12/28 08:06:24;;;;;;;;;;;;;;;;;;4975864;28;19929;-51
2022/12/28 08:08:49;;;;;;;;;;;;;;;;;;4958846;28;19949;-50
2022/12/28 08:11:15;;;;;;;;;;;;;;;;;;4971194;28;20030;-51
2022/12/28 08:13:41;;;;;;;;;;;;;;;;;;4980842;28;19924;-51
2022/12/28 08:16:07;;;;;;;;;;;;;;;;;;4973707;28;19922;-50
2022/12/28 08:18:33;;;;;;;;;;;;;;;;;;4965909;28;20409;-51
2022/12/28 08:20:59;;;;;;;;;;;;;;;;;;4978028;28;19926;-49
2022/12/28 08:23:25;;;;;;;;;;;;;;;;;;4982220;28;19960;-50
2022/12/28 08:25:51;;;;;;;;;;;;;;;;;;4978093;28;19922;-50
2022/12/28 08:28:17;;;;;;;;;;;;;;;;;;4959809;28;20001;-50
2022/12/28 08:30:43;;;;;;;;;;;;;;;;;;4972402;28;19918;-50
2022/12/28 08:33:09;;;;;;;;;;;;;;;;;;4974391;28;19972;-50
2022/12/28 08:35:34;;;;;;;;;;;;;;;;;;4973901;28;20394;-50
2022/12/28 08:38:00;;;;;;;;;;;;;;;;;;4983590;28;19986;-50
2022/12/28 08:40:28;;;;;;;;;;;;;;;;;;4981892;28;19922;-50
2022/12/28 08:42:54;;;;;;;;;;;;;;;;;;4967370;28;19927;-50
2022/12/28 08:45:20;;;;;;;;;;;;;;;;;;4981626;28;19925;-49
2022/12/28 08:47:46;;;;;;;;;;;;;;;;;;4955282;28;19922;-51
2022/12/28 08:50:12;;;;;;;;;;;;;;;;;;4976701;28;19987;-50
2022/12/28 08:52:38;;;;;;;;;;;;;;;;;;4958248;28;19922;-50
2022/12/28 08:55:03;;;;;;;;;;;;;;;;;;4973194;28;20540;-50
2022/12/28 08:57:29;;;;;;;;;;;;;;;;;;4978691;28;19926;-50
2022/12/28 08:59:55;;;;;;;;;;;;;;;;;;4965036;28;20021;-51
2022/12/28 09:02:21;;;;;;;;;;;;;;;;;;4968343;28;20130;-50
2022/12/28 09:04:47;;;;;;;;;;;;;;;;;;4961773;28;19926;-51
2022/12/28 09:07:13;;;;;;;;;;;;;;;;;;4942028;28;20397;-51
2022/12/28 09:09:39;;;;;;;;;;;;;;;;;;4971747;28;19976;-51
2022/12/28 09:12:06;;;;;;;;;;;;;;;;;;4941143;28;19922;-50
2022/12/28 09:14:32;;;;;;;;;;;;;;;;;;4933628;28;21965;-51
2022/12/28 09:16:57;;;;;;;;;;;;;;;;;;4943328;28;20177;-51
2022/12/28 09:19:23;;;;;;;;;;;;;;;;;;4935216;28;20047;-50
2022/12/28 09:21:51;;;;;;;;;;;;;;;;;;4944935;28;20155;-51
2022/12/28 09:24:17;;;;;;;;;;;;;;;;;;4961355;28;20067;-50
2022/12/28 09:26:43;;;;;;;;;;;;;;;;;;4965684;28;20299;-51
2022/12/28 09:29:09;;;;;;;;;;;;;;;;;;4927880;28;19981;-51
2022/12/28 09:31:35;;;;;;;;;;;;;;;;;;4955217;28;19925;-51
2022/12/28 09:34:01;;;;;;;;;;;;;;;;;;4944136;28;20274;-51
2022/12/28 09:36:28;;;;;;;;;;;;;;;;;;4940298;28;20293;-50
2022/12/28 09:38:53;;;;;;;;;;;;;;;;;;4958083;28;20355;-51
2022/12/28 09:41:19;;;;;;;;;;;;;;;;;;4943415;28;19926;-51
2022/12/28 09:43:45;;;;;;;;;;;;;;;;;;4955501;28;19918;-52
2022/12/28 09:46:11;;;;;;;;;;;;;;;;;;4916607;28;19934;-51
2022/12/28 09:48:37;;;;;;;;;;;;;;;;;;4948234;28;19945;-51
2022/12/28 09:51:03;;;;;;;;;;;;;;;;;;4950044;28;19972;-51
2022/12/28 09:53:29;;;;;;;;;;;;;;;;;;4959884;28;19948;-51
2022/12/28 09:55:55;;;;;;;;;;;;;;;;;;4949794;28;20349;-51
2022/12/28 09:58:21;;;;;;;;;;;;;;;;;;4945773;28;19952;-51
2022/12/28 10:00:47;;;;;;;;;;;;;;;;;;4971881;28;20291;-51
2022/12/28 10:03:13;;;;;;;;;;;;;;;;;;4957967;28;19921;-51
2022/12/28 10:05:39;;;;;;;;;;;;;;;;;;4980275;28;19988;-51
2022/12/28 10:08:05;;;;;;;;;;;;;;;;;;4973571;28;19944;-51
2022/12/28 10:10:30;;;;;;;;;;;;;;;;;;4978266;28;19929;-51
2022/12/28 10:12:56;;;;;;;;;;;;;;;;;;4987536;28;21016;-52
2022/12/28 10:15:22;;;;;;;;;;;;;;;;;;4979224;28;20654;-50
2022/12/28 10:17:48;;;;;;;;;;;;;;;;;;4990045;28;19933;-51
2022/12/28 10:20:14;;;;;;;;;;;;;;;;;;4995836;28;19917;-51
2022/12/28 10:22:40;;;;;;;;;;;;;;;;;;5004142;28;19948;-51
2022/12/28 10:25:06;;;;;;;;;;;;;;;;;;5004205;28;20075;-51
2022/12/28 10:27:32;;;;;;;;;;;;;;;;;;4992365;28;19933;-51
2022/12/28 10:29:58;;;;;;;;;;;;;;;;;;4983058;28;19933;-51
2022/12/28 10:32:24;;;;;;;;;;;;;;;;;;4998015;28;19917;-50
2022/12/28 10:34:50;;;;;;;;;;;;;;;;;;4977339;28;19996;-51
2022/12/28 10:37:16;;;;;;;;;;;;;;;;;;4994638;28;19917;-51
2022/12/28 10:39:42;;;;;;;;;;;;;;;;;;4973836;28;20326;-50
2022/12/28 10:42:07;;;;;;;;;;;;;;;;;;4983323;28;19925;-51
2022/12/28 10:44:33;;;;;;;;;;;;;;;;;;4978986;28;20302;-50
2022/12/28 10:46:59;;;;;;;;;;;;;;;;;;4991714;28;19932;-51
2022/12/28 10:49:25;;;;;;;;;;;;;;;;;;5003450;28;19929;-51
2022/12/28 10:51:51;;;;;;;;;;;;;;;;;;5002460;28;19926;-50
2022/12/28 10:54:17;;;;;;;;;;;;;;;;;;5003626;28;19924;-51
2022/12/28 10:56:43;;;;;;;;;;;;;;;;;;4983554;28;19944;-51
2022/12/28 10:59:08;;;;;;;;;;;;;;;;;;4995999;28;20063;-51
2022/12/28 11:01:34;;;;;;;;;;;;;;;;;;4998623;28;19921;-51
2022/12/28 11:04:00;;;;;;;;;;;;;;;;;;4996600;28;19929;-50
2022/12/28 11:06:26;;;;;;;;;;;;;;;;;;4996000;28;19925;-51
2022/12/28 11:08:52;;;;;;;;;;;;;;;;;;4979693;28;20187;-51
2022/12/28 11:11:18;;;;;;;;;;;;;;;;;;4974724;28;19920;-50
2022/12/28 11:13:44;;;;;;;;;;;;;;;;;;4996182;28;20384;-50
2022/12/28 11:16:11;;;;;;;;;;;;;;;;;;4975538;28;19926;-50
2022/12/28 11:18:37;;;;;;;;;;;;;;;;;;4967675;28;20002;-50
2022/12/28 11:21:03;;;;;;;;;;;;;;;;;;4970075;28;19921;-50
2022/12/28 11:23:30;;;;;;;;;;;;;;;;;;4996705;28;20310;-50
2022/12/28 11:25:56;;;;;;;;;;;;;;;;;;4979782;28;19921;-51
2022/12/28 11:28:22;;;;;;;;;;;;;;;;;;4991774;28;20675;-51
2022/12/28 11:30:48;;;;;;;;;;;;;;;;;;5006836;28;19924;-51
2022/12/28 11:33:14;;;;;;;;;;;;;;;;;;5005009;28;20345;-51
2022/12/28 11:35:39;;;;;;;;;;;;;;;;;;4990789;28;19922;-51
2022/12/28 11:38:05;;;;;;;;;;;;;;;;;;4980840;28;20428;-51
2022/12/28 11:40:31;;;;;;;;;;;;;;;;;;4970338;28;20382;-51
2022/12/28 11:42:57;;;;;;;;;;;;;;;;;;4988554;28;19932;-50
2022/12/28 11:45:23;;;;;;;;;;;;;;;;;;4984254;28;20412;-50
2022/12/28 11:47:49;;;;;;;;;;;;;;;;;;4983917;28;19922;-51
2022/12/28 11:50:15;;;;;;;;;;;;;;;;;;4986199;28;19927;-50
2022/12/28 11:52:41;;;;;;;;;;;;;;;;;;5001864;28;19990;-51
2022/12/28 11:55:06;;;;;;;;;;;;;;;;;;4995513;28;19917;-51
2022/12/28 11:57:33;;;;;;;;;;;;;;;;;;4976780;28;20006;-51
2022/12/28 11:59:59;;;;;;;;;;;;;;;;;;4978618;28;20287;-51
2022/12/28 12:02:24;;;;;;;;;;;;;;;;;;4971897;28;19977;-51
2022/12/28 12:04:50;;;;;;;;;;;;;;;;;;4980912;28;20311;-51
2022/12/28 12:07:16;;;;;;;;;;;;;;;;;;4998598;28;20301;-51
2022/12/28 12:09:42;;;;;;;;;;;;;;;;;;4979217;28;19926;-51
2022/12/28 12:12:08;;;;;;;;;;;;;;;;;;4983000;28;19917;-51
2022/12/28 12:14:34;;;;;;;;;;;;;;;;;;4964653;28;20422;-51
2022/12/28 12:17:02;;;;;;;;;;;;;;;;;;4982030;28;19925;-51
2022/12/28 12:19:28;;;;;;;;;;;;;;;;;;4984864;28;19925;-51
2022/12/28 12:21:53;;;;;;;;;;;;;;;;;;4974222;28;19925;-51
2022/12/28 12:24:19;;;;;;;;;;;;;;;;;;4991716;28;19978;-52
2022/12/28 12:26:45;;;;;;;;;;;;;;;;;;4995351;28;20022;-50
2022/12/28 12:29:11;;;;;;;;;;;;;;;;;;4993576;28;20373;-51
2022/12/28 12:31:37;;;;;;;;;;;;;;;;;;4995705;28;19925;-51
2022/12/28 12:34:03;;;;;;;;;;;;;;;;;;4985574;28;20375;-51
2022/12/28 12:36:29;;;;;;;;;;;;;;;;;;4990746;28;20056;-51
2022/12/28 12:38:55;;;;;;;;;;;;;;;;;;5002249;28;20280;-51
2022/12/28 12:41:20;;;;;;;;;;;;;;;;;;4999144;28;19922;-51
2022/12/28 12:43:46;;;;;;;;;;;;;;;;;;4996512;28;20578;-51
2022/12/28 12:46:12;;;;;;;;;;;;;;;;;;4978078;28;19925;-51
2022/12/28 12:48:38;;;;;;;;;;;;;;;;;;4993846;28;19925;-51
2022/12/28 12:51:04;;;;;;;;;;;;;;;;;;4990438;28;20323;-51
2022/12/28 12:53:30;;;;;;;;;;;;;;;;;;4980609;28;19929;-51
2022/12/28 12:55:56;;;;;;;;;;;;;;;;;;4996224;28;20024;-51
2022/12/28 12:58:21;;;;;;;;;;;;;;;;;;5002238;28;20024;-51
2022/12/28 13:00:47;;;;;;;;;;;;;;;;;;4983093;28;20056;-51
2022/12/28 13:03:13;;;;;;;;;;;;;;;;;;4996426;28;19928;-51
2022/12/28 13:05:39;;;;;;;;;;;;;;;;;;5000948;28;19940;-52
2022/12/28 13:08:05;;;;;;;;;;;;;;;;;;5002404;28;20562;-51
2022/12/28 13:10:31;;;;;;;;;;;;;;;;;;5001379;28;19947;-50
2022/12/28 13:12:57;;;;;;;;;;;;;;;;;;4970156;28;20539;-51
2022/12/28 13:15:23;;;;;;;;;;;;;;;;;;4985345;28;19968;-52
2022/12/28 13:17:49;;;;;;;;;;;;;;;;;;4985384;28;20358;-51
2022/12/28 13:20:14;;;;;;;;;;;;;;;;;;4978627;28;19925;-51
2022/12/28 13:22:40;;;;;;;;;;;;;;;;;;4984221;28;19925;-51
2022/12/28 13:25:06;;;;;;;;;;;;;;;;;;4978559;28;20143;-52
2022/12/28 13:27:32;;;;;;;;;;;;;;;;;;4998051;28;19964;-51
2022/12/28 13:29:58;;;;;;;;;;;;;;;;;;4983911;28;19980;-52
2022/12/28 13:32:24;;;;;;;;;;;;;;;;;;4978222;28;20564;-52
2022/12/28 13:34:50;;;;;;;;;;;;;;;;;;4990760;28;20180;-52
2022/12/28 13:37:16;;;;;;;;;;;;;;;;;;4998468;28;19925;-52
2022/12/28 13:39:42;;;;;;;;;;;;;;;;;;4949829;28;20026;-52
2022/12/28 13:42:07;;;;;;;;;;;;;;;;;;4988121;28;19929;-52
2022/12/28 13:44:33;;;;;;;;;;;;;;;;;;4981535;28;19957;-52
2022/12/28 13:46:59;;;;;;;;;;;;;;;;;;4988453;28;19925;-51
2022/12/28 13:49:25;;;;;;;;;;;;;;;;;;4993593;28;20405;-52
2022/12/28 13:51:51;;;;;;;;;;;;;;;;;;4988584;28;19921;-52
2022/12/28 13:54:17;;;;;;;;;;;;;;;;;;4992179;28;20399;-51
2022/12/28 13:56:43;;;;;;;;;;;;;;;;;;4990973;28;19921;-51
2022/12/28 13:59:09;;;;;;;;;;;;;;;;;;4988218;28;19929;-52
2022/12/28 14:01:35;;;;;;;;;;;;;;;;;;4990933;28;19932;-52
2022/12/28 14:04:00;;;;;;;;;;;;;;;;;;4975706;28;20588;-51
2022/12/28 14:06:26;;;;;;;;;;;;;;;;;;4994282;28;19929;-52
2022/12/28 14:08:53;;;;;;;;;;;;;;;;;;4972771;28;19925;-52
2022/12/28 14:11:19;;;;;;;;;;;;;;;;;;4976599;28;20494;-52
2022/12/28 14:13:45;;;;;;;;;;;;;;;;;;4988620;28;19929;-51
2022/12/28 14:16:10;;;;;;;;;;;;;;;;;;4977292;28;19979;-52
2022/12/28 14:18:36;;;;;;;;;;;;;;;;;;4961053;28;19968;-52
2022/12/28 14:21:03;;;;;;;;;;;;;;;;;;4980292;28;20397;-53
2022/12/28 14:23:28;;;;;;;;;;;;;;;;;;4994494;28;19928;-51
2022/12/28 14:25:54;;;;;;;;;;;;;;;;;;4979781;28;19925;-51
2022/12/28 14:28:20;;;;;;;;;;;;;;;;;;4990182;28;20015;-52
2022/12/28 14:30:46;;;;;;;;;;;;;;;;;;4983985;28;19921;-51
2022/12/28 14:33:12;;;;;;;;;;;;;;;;;;4981975;28;19991;-51
2022/12/28 14:35:38;;;;;;;;;;;;;;;;;;4980761;28;20366;-51
2022/12/28 14:38:04;;;;;;;;;;;;;;;;;;4964529;28;19965;-51
2022/12/28 14:40:29;;;;;;;;;;;;;;;;;;4992009;28;20370;-51
2022/12/28 14:42:55;;;;;;;;;;;;;;;;;;4998321;28;19972;-51
2022/12/28 14:45:21;;;;;;;;;;;;;;;;;;4991280;28;20303;-51
2022/12/28 14:47:47;;;;;;;;;;;;;;;;;;4986473;28;20016;-51
2022/12/28 14:50:14;;;;;;;;;;;;;;;;;;4982527;28;19922;-52
2022/12/28 14:52:40;;;;;;;;;;;;;;;;;;4993475;28;20367;-52
2022/12/28 14:55:05;;;;;;;;;;;;;;;;;;4984941;28;19968;-52
2022/12/28 14:57:31;;;;;;;;;;;;;;;;;;4993158;28;20589;-51
2022/12/28 14:59:57;;;;;;;;;;;;;;;;;;4982307;28;19930;-51
2022/12/28 15:02:23;;;;;;;;;;;;;;;;;;4992623;28;19925;-51
2022/12/28 15:04:49;;;;;;;;;;;;;;;;;;4993951;28;19929;-51
2022/12/28 15:07:15;;;;;;;;;;;;;;;;;;5000432;28;20019;-51
2022/12/28 15:09:41;;;;;;;;;;;;;;;;;;4996657;28;19926;-51
2022/12/28 15:12:07;;;;;;;;;;;;;;;;;;4996191;28;20473;-51
2022/12/28 15:14:32;;;;;;;;;;;;;;;;;;5000563;28;19917;-51
2022/12/28 15:16:58;;;;;;;;;;;;;;;;;;4993380;28;20118;-51
2022/12/28 15:19:24;;;;;;;;;;;;;;;;;;4989850;28;20391;-51
2022/12/28 15:21:50;;;;;;;;;;;;;;;;;;4998100;28;19925;-51
2022/12/28 15:24:16;;;;;;;;;;;;;;;;;;4987344;28;20328;-51
2022/12/28 15:26:42;;;;;;;;;;;;;;;;;;4990412;28;19929;-51
2022/12/28 15:29:08;;;;;;;;;;;;;;;;;;4986502;28;19928;-51
2022/12/28 15:31:33;;;;;;;;;;;;;;;;;;4978058;28;19921;-51
2022/12/28 15:33:59;;;;;;;;;;;;;;;;;;5005763;28;20019;-51
2022/12/28 15:36:25;;;;;;;;;;;;;;;;;;4976705;28;20336;-51
2022/12/28 15:38:51;;;;;;;;;;;;;;;;;;4999732;28;20023;-51
2022/12/28 15:44:02;;;;;;;;;;;;;;;;;;4986006;28;19968;-52
2022/12/28 15:46:28;;;;;;;;;;;;;;;;;;4963179;28;20290;-52
2022/12/28 15:48:54;;;;;;;;;;;;;;;;;;4976986;28;19922;-51
2022/12/28 15:51:20;;;;;;;;;;;;;;;;;;4958149;28;19926;-51
2022/12/28 15:53:45;;;;;;;;;;;;;;;;;;4986155;28;19932;-51
2022/12/28 15:56:11;;;;;;;;;;;;;;;;;;4992539;28;19921;-51
2022/12/28 15:58:37;;;;;;;;;;;;;;;;;;4981550;28;19936;-51
2022/12/28 16:01:03;;;;;;;;;;;;;;;;;;4996789;28;19921;-51
2022/12/28 16:03:29;;;;;;;;;;;;;;;;;;4985934;28;19932;-51
2022/12/28 16:05:55;;;;;;;;;;;;;;;;;;4979399;28;20047;-51
2022/12/28 16:08:21;;;;;;;;;;;;;;;;;;4971795;28;20303;-50
2022/12/28 16:10:46;;;;;;;;;;;;;;;;;;4992533;28;20029;-51
2022/12/28 16:13:12;;;;;;;;;;;;;;;;;;4972297;28;20000;-51
2022/12/28 16:15:38;;;;;;;;;;;;;;;;;;4989223;28;19948;-51
2022/12/28 16:18:04;;;;;;;;;;;;;;;;;;4998788;28;19932;-51
2022/12/28 16:20:30;;;;;;;;;;;;;;;;;;4980660;28;20353;-51
2022/12/28 16:22:56;;;;;;;;;;;;;;;;;;4980681;28;20608;-52
2022/12/28 16:25:22;;;;;;;;;;;;;;;;;;4974656;28;19929;-50
2022/12/28 16:27:48;;;;;;;;;;;;;;;;;;4995033;28;19932;-51
2022/12/28 16:30:13;;;;;;;;;;;;;;;;;;4978235;28;20568;-52
2022/12/28 16:32:39;;;;;;;;;;;;;;;;;;4969251;28;20265;-52
2022/12/28 16:35:05;;;;;;;;;;;;;;;;;;4990570;28;20905;-51
2022/12/28 16:37:31;;;;;;;;;;;;;;;;;;4990553;28;19933;-51
2022/12/28 16:39:57;;;;;;;;;;;;;;;;;;4985399;28;19938;-52
2022/12/28 16:42:23;;;;;;;;;;;;;;;;;;4992551;28;20347;-51
2022/12/28 16:44:49;;;;;;;;;;;;;;;;;;4994702;28;19983;-54
2022/12/28 16:47:15;;;;;;;;;;;;;;;;;;4976227;28;20304;-51
2022/12/28 16:49:41;;;;;;;;;;;;;;;;;;4973756;28;20024;-51
2022/12/28 16:52:07;;;;;;;;;;;;;;;;;;4989647;28;19956;-52
2022/12/28 16:54:33;;;;;;;;;;;;;;;;;;4995954;28;20358;-50
2022/12/28 16:56:59;;;;;;;;;;;;;;;;;;4971977;28;19928;-51
2022/12/28 16:59:25;;;;;;;;;;;;;;;;;;4989182;28;19991;-51
2022/12/28 17:01:50;;;;;;;;;;;;;;;;;;4973700;28;20004;-52
2022/12/28 17:04:16;;;;;;;;;;;;;;;;;;4989595;28;19965;-51